sensor_id;sensor_type;location;lat;lon;timestamp;temperature;humidity
45983;DHT22;31711;47.158;7.346;2022-07-10T00:01:54;16.80;99.90
45983;DHT22;31711;47.158;7.346;2022-07-10T00:04:20;16.80;99.90
45983;DHT22;31711;47.158;7.346;2022-07-10T00:06:46;16.70;99.90
45983;DHT22;31711;47.158;7.346;2022-07-10T00:09:15;16.80;99.90
45983;DHT22;31711;47.158;7.346;2022-07-10T00:11:42;16.80;99.90
45983;DHT22;31711;47.158;7.346;2022-07-10T00:14:08;16.70;99.90
45983;DHT22;31711;47.158;7.346;2022-07-10T00:16:34;16.80;99.90
45983;DHT22;31711;47.158;7.346;2022-07-10T00:19:00;16.80;99.90
45983;DHT22;31711;47.158;7.346;2022-07-10T00:21:26;16.60;99.90
45983;DHT22;31711;47.158;7.346;2022-07-10T00:23:52;16.60;99.90
45983;DHT22;31711;47.158;7.346;2022-07-10T00:26:18;16.50;99.90
45983;DHT22;31711;47.158;7.346;2022-07-10T00:28:44;16.50;99.90
45983;DHT22;31711;47.158;7.346;2022-07-10T00:31:10;16.60;99.90
45983;DHT22;31711;47.158;7.346;2022-07-10T00:33:37;16.60;99.90
45983;DHT22;31711;47.158;7.346;2022-07-10T00:36:04;16.60;99.90
45983;DHT22;31711;47.158;7.346;2022-07-10T00:38:31;16.60;99.90
45983;DHT22;31711;47.158;7.346;2022-07-10T00:40:57;16.60;99.90
45983;DHT22;31711;47.158;7.346;2022-07-10T00:43:23;16.50;99.90
45983;DHT22;31711;47.158;7.346;2022-07-10T00:45:49;16.50;99.90
45983;DHT22;31711;47.158;7.346;2022-07-10T00:48:15;16.50;99.90
45983;DHT22;31711;47.158;7.346;2022-07-10T00:50:43;16.50;99.90
45983;DHT22;31711;47.158;7.346;2022-07-10T00:53:11;16.50;99.90
45983;DHT22;31711;47.158;7.346;2022-07-10T00:55:39;16.40;99.90
45983;DHT22;31711;47.158;7.346;2022-07-10T00:58:10;16.40;99.90
45983;DHT22;31711;47.158;7.346;2022-07-10T01:00:36;16.30;99.90
45983;DHT22;31711;47.158;7.346;2022-07-10T01:03:03;16.40;99.90
45983;DHT22;31711;47.158;7.346;2022-07-10T01:05:29;16.40;99.90
45983;DHT22;31711;47.158;7.346;2022-07-10T01:07:55;16.50;99.90
45983;DHT22;31711;47.158;7.346;2022-07-10T01:10:21;16.40;99.90
45983;DHT22;31711;47.158;7.346;2022-07-10T01:12:48;16.40;99.90
45983;DHT22;31711;47.158;7.346;2022-07-10T01:15:14;16.40;99.90
45983;DHT22;31711;47.158;7.346;2022-07-10T01:17:40;16.40;99.90
45983;DHT22;31711;47.158;7.346;2022-07-10T01:20:09;16.30;99.90
45983;DHT22;31711;47.158;7.346;2022-07-10T01:22:38;16.30;99.90
45983;DHT22;31711;47.158;7.346;2022-07-10T01:25:05;16.30;99.90
45983;DHT22;31711;47.158;7.346;2022-07-10T01:27:31;16.20;99.90
45983;DHT22;31711;47.158;7.346;2022-07-10T01:29:57;16.10;99.90
45983;DHT22;31711;47.158;7.346;2022-07-10T01:32:24;16.00;99.90
45983;DHT22;31711;47.158;7.346;2022-07-10T01:34:50;16.00;99.90
45983;DHT22;31711;47.158;7.346;2022-07-10T01:37:16;15.90;99.90
45983;DHT22;31711;47.158;7.346;2022-07-10T01:39:42;15.80;99.90
45983;DHT22;31711;47.158;7.346;2022-07-10T01:42:08;15.80;99.90
45983;DHT22;31711;47.158;7.346;2022-07-10T01:44:34;15.60;99.90
45983;DHT22;31711;47.158;7.346;2022-07-10T01:47:00;15.50;99.90
45983;DHT22;31711;47.158;7.346;2022-07-10T01:49:26;15.70;99.90
45983;DHT22;31711;47.158;7.346;2022-07-10T01:51:52;15.80;99.90
45983;DHT22;31711;47.158;7.346;2022-07-10T01:54:17;15.80;99.90
45983;DHT22;31711;47.158;7.346;2022-07-10T01:56:43;15.80;99.90
45983;DHT22;31711;47.158;7.346;2022-07-10T01:59:09;15.70;99.90
45983;DHT22;31711;47.158;7.346;2022-07-10T02:01:35;15.60;99.90
45983;DHT22;31711;47.158;7.346;2022-07-10T02:04:02;15.50;99.90
45983;DHT22;31711;47.158;7.346;2022-07-10T02:06:47;15.60;99.90
45983;DHT22;31711;47.158;7.346;2022-07-10T02:09:13;15.50;99.90
45983;DHT22;31711;47.158;7.346;2022-07-10T02:11:40;15.50;99.90
45983;DHT22;31711;47.158;7.346;2022-07-10T02:14:06;15.40;99.90
45983;DHT22;31711;47.158;7.346;2022-07-10T02:16:34;15.40;99.90
45983;DHT22;31711;47.158;7.346;2022-07-10T02:19:02;15.40;99.90
45983;DHT22;31711;47.158;7.346;2022-07-10T02:21:27;15.30;99.90
45983;DHT22;31711;47.158;7.346;2022-07-10T02:23:53;15.40;99.90
45983;DHT22;31711;47.158;7.346;2022-07-10T02:26:19;15.40;99.90
45983;DHT22;31711;47.158;7.346;2022-07-10T02:28:45;15.40;99.90
45983;DHT22;31711;47.158;7.346;2022-07-10T02:31:11;15.50;99.90
45983;DHT22;31711;47.158;7.346;2022-07-10T02:33:37;15.40;99.90
45983;DHT22;31711;47.158;7.346;2022-07-10T02:36:04;15.30;99.90
45983;DHT22;31711;47.158;7.346;2022-07-10T02:38:30;15.20;99.90
45983;DHT22;31711;47.158;7.346;2022-07-10T02:40:56;15.20;99.90
45983;DHT22;31711;47.158;7.346;2022-07-10T02:43:22;15.20;99.90
45983;DHT22;31711;47.158;7.346;2022-07-10T02:45:48;15.20;99.90
45983;DHT22;31711;47.158;7.346;2022-07-10T02:48:17;15.20;99.90
45983;DHT22;31711;47.158;7.346;2022-07-10T02:50:44;15.20;99.90
45983;DHT22;31711;47.158;7.346;2022-07-10T02:53:10;15.20;99.90
45983;DHT22;31711;47.158;7.346;2022-07-10T02:55:36;14.90;99.90
45983;DHT22;31711;47.158;7.346;2022-07-10T02:58:01;15.00;99.90
45983;DHT22;31711;47.158;7.346;2022-07-10T03:00:29;14.90;99.90
45983;DHT22;31711;47.158;7.346;2022-07-10T03:02:55;15.00;99.90
45983;DHT22;31711;47.158;7.346;2022-07-10T03:05:21;15.00;99.90
45983;DHT22;31711;47.158;7.346;2022-07-10T03:07:48;15.00;99.90
45983;DHT22;31711;47.158;7.346;2022-07-10T03:10:14;15.00;99.90
45983;DHT22;31711;47.158;7.346;2022-07-10T03:12:39;15.00;99.90
45983;DHT22;31711;47.158;7.346;2022-07-10T03:15:06;15.00;99.90
45983;DHT22;31711;47.158;7.346;2022-07-10T03:17:32;15.10;99.90
45983;DHT22;31711;47.158;7.346;2022-07-10T03:19:58;15.00;99.90
45983;DHT22;31711;47.158;7.346;2022-07-10T03:22:24;14.90;99.90
45983;DHT22;31711;47.158;7.346;2022-07-10T03:24:50;15.00;99.90
45983;DHT22;31711;47.158;7.346;2022-07-10T03:27:15;15.00;99.90
45983;DHT22;31711;47.158;7.346;2022-07-10T03:29:42;15.10;99.90
45983;DHT22;31711;47.158;7.346;2022-07-10T03:32:08;15.10;99.90
45983;DHT22;31711;47.158;7.346;2022-07-10T03:34:34;15.20;99.90
45983;DHT22;31711;47.158;7.346;2022-07-10T03:37:00;15.20;99.90
45983;DHT22;31711;47.158;7.346;2022-07-10T03:39:26;15.10;99.90
45983;DHT22;31711;47.158;7.346;2022-07-10T03:41:52;15.00;99.90
45983;DHT22;31711;47.158;7.346;2022-07-10T03:44:18;15.00;99.90
45983;DHT22;31711;47.158;7.346;2022-07-10T03:46:44;14.90;99.90
45983;DHT22;31711;47.158;7.346;2022-07-10T03:49:10;14.90;99.90
45983;DHT22;31711;47.158;7.346;2022-07-10T03:51:36;14.90;99.90
45983;DHT22;31711;47.158;7.346;2022-07-10T03:54:02;14.90;99.90
45983;DHT22;31711;47.158;7.346;2022-07-10T03:56:28;15.00;99.90
45983;DHT22;31711;47.158;7.346;2022-07-10T03:59:14;14.90;99.90
45983;DHT22;31711;47.158;7.346;2022-07-10T04:01:40;14.90;99.90
45983;DHT22;31711;47.158;7.346;2022-07-10T04:04:05;14.90;99.90
45983;DHT22;31711;47.158;7.346;2022-07-10T04:06:31;14.90;99.90
45983;DHT22;31711;47.158;7.346;2022-07-10T04:08:57;14.90;99.90
45983;DHT22;31711;47.158;7.346;2022-07-10T04:11:23;14.70;99.90
45983;DHT22;31711;47.158;7.346;2022-07-10T04:13:49;14.90;99.90
45983;DHT22;31711;47.158;7.346;2022-07-10T04:16:15;15.00;99.90
45983;DHT22;31711;47.158;7.346;2022-07-10T04:18:41;15.00;99.90
45983;DHT22;31711;47.158;7.346;2022-07-10T04:21:07;15.00;99.90
45983;DHT22;31711;47.158;7.346;2022-07-10T04:23:33;15.00;99.90
45983;DHT22;31711;47.158;7.346;2022-07-10T04:26:00;15.00;99.90
45983;DHT22;31711;47.158;7.346;2022-07-10T04:28:26;15.00;99.90
45983;DHT22;31711;47.158;7.346;2022-07-10T04:30:52;15.10;99.90
45983;DHT22;31711;47.158;7.346;2022-07-10T04:33:18;15.20;99.90
45983;DHT22;31711;47.158;7.346;2022-07-10T04:35:43;15.20;99.90
45983;DHT22;31711;47.158;7.346;2022-07-10T04:38:09;15.30;99.90
45983;DHT22;31711;47.158;7.346;2022-07-10T04:40:35;15.30;99.90
45983;DHT22;31711;47.158;7.346;2022-07-10T04:43:01;15.40;99.90
45983;DHT22;31711;47.158;7.346;2022-07-10T04:45:27;15.40;99.90
45983;DHT22;31711;47.158;7.346;2022-07-10T04:47:53;15.50;99.90
45983;DHT22;31711;47.158;7.346;2022-07-10T04:50:19;15.50;99.90
45983;DHT22;31711;47.158;7.346;2022-07-10T04:52:45;15.50;99.90
45983;DHT22;31711;47.158;7.346;2022-07-10T04:55:11;15.50;99.90
45983;DHT22;31711;47.158;7.346;2022-07-10T04:57:37;15.60;99.90
45983;DHT22;31711;47.158;7.346;2022-07-10T05:00:04;15.70;99.90
45983;DHT22;31711;47.158;7.346;2022-07-10T05:02:30;15.60;99.90
45983;DHT22;31711;47.158;7.346;2022-07-10T05:04:56;15.60;99.90
45983;DHT22;31711;47.158;7.346;2022-07-10T05:07:22;15.60;99.90
45983;DHT22;31711;47.158;7.346;2022-07-10T05:09:48;15.70;99.90
45983;DHT22;31711;47.158;7.346;2022-07-10T05:12:14;15.60;99.90
45983;DHT22;31711;47.158;7.346;2022-07-10T05:14:40;15.60;99.90
45983;DHT22;31711;47.158;7.346;2022-07-10T05:17:06;15.70;99.90
45983;DHT22;31711;47.158;7.346;2022-07-10T05:19:31;15.80;99.90
45983;DHT22;31711;47.158;7.346;2022-07-10T05:21:57;16.00;99.90
45983;DHT22;31711;47.158;7.346;2022-07-10T05:24:23;16.10;99.90
45983;DHT22;31711;47.158;7.346;2022-07-10T05:26:49;16.30;99.90
45983;DHT22;31711;47.158;7.346;2022-07-10T05:29:15;16.30;99.90
45983;DHT22;31711;47.158;7.346;2022-07-10T05:31:41;16.30;99.90
45983;DHT22;31711;47.158;7.346;2022-07-10T05:34:07;16.20;99.90
45983;DHT22;31711;47.158;7.346;2022-07-10T05:36:33;16.30;99.90
45983;DHT22;31711;47.158;7.346;2022-07-10T05:38:58;16.60;99.90
45983;DHT22;31711;47.158;7.346;2022-07-10T05:41:25;16.70;99.90
45983;DHT22;31711;47.158;7.346;2022-07-10T05:43:50;16.90;99.90
45983;DHT22;31711;47.158;7.346;2022-07-10T05:46:16;17.10;99.90
45983;DHT22;31711;47.158;7.346;2022-07-10T05:48:42;17.30;99.90
45983;DHT22;31711;47.158;7.346;2022-07-10T05:51:08;17.40;99.90
45983;DHT22;31711;47.158;7.346;2022-07-10T05:53:34;17.50;99.90
45983;DHT22;31711;47.158;7.346;2022-07-10T05:56:01;17.50;99.90
45983;DHT22;31711;47.158;7.346;2022-07-10T05:58:28;17.50;99.90
45983;DHT22;31711;47.158;7.346;2022-07-10T06:00:55;17.50;99.90
45983;DHT22;31711;47.158;7.346;2022-07-10T06:03:21;17.50;99.90
45983;DHT22;31711;47.158;7.346;2022-07-10T06:05:47;17.60;99.90
45983;DHT22;31711;47.158;7.346;2022-07-10T06:08:14;17.60;99.90
45983;DHT22;31711;47.158;7.346;2022-07-10T06:10:40;17.50;99.90
45983;DHT22;31711;47.158;7.346;2022-07-10T06:13:06;17.70;99.90
45983;DHT22;31711;47.158;7.346;2022-07-10T06:15:32;17.80;99.90
45983;DHT22;31711;47.158;7.346;2022-07-10T06:17:58;17.90;99.90
45983;DHT22;31711;47.158;7.346;2022-07-10T06:20:27;18.00;99.90
45983;DHT22;31711;47.158;7.346;2022-07-10T06:22:54;18.20;99.90
45983;DHT22;31711;47.158;7.346;2022-07-10T06:25:20;18.40;99.90
45983;DHT22;31711;47.158;7.346;2022-07-10T06:27:46;18.40;99.90
45983;DHT22;31711;47.158;7.346;2022-07-10T06:30:12;18.30;99.90
45983;DHT22;31711;47.158;7.346;2022-07-10T06:32:39;18.50;99.90
45983;DHT22;31711;47.158;7.346;2022-07-10T06:35:05;18.30;99.90
45983;DHT22;31711;47.158;7.346;2022-07-10T06:37:33;18.40;99.90
45983;DHT22;31711;47.158;7.346;2022-07-10T06:39:59;18.30;99.90
45983;DHT22;31711;47.158;7.346;2022-07-10T06:42:25;18.40;99.90
45983;DHT22;31711;47.158;7.346;2022-07-10T06:44:51;18.40;99.90
45983;DHT22;31711;47.158;7.346;2022-07-10T06:47:19;18.70;99.90
45983;DHT22;31711;47.158;7.346;2022-07-10T06:50:05;18.80;99.90
45983;DHT22;31711;47.158;7.346;2022-07-10T06:52:32;19.10;99.90
45983;DHT22;31711;47.158;7.346;2022-07-10T06:54:59;19.10;99.90
45983;DHT22;31711;47.158;7.346;2022-07-10T06:57:26;19.10;99.90
45983;DHT22;31711;47.158;7.346;2022-07-10T06:59:52;19.20;99.90
45983;DHT22;31711;47.158;7.346;2022-07-10T07:02:18;19.20;99.90
45983;DHT22;31711;47.158;7.346;2022-07-10T07:04:44;19.30;99.90
45983;DHT22;31711;47.158;7.346;2022-07-10T07:07:12;19.50;99.90
45983;DHT22;31711;47.158;7.346;2022-07-10T07:09:39;19.60;99.90
45983;DHT22;31711;47.158;7.346;2022-07-10T07:12:05;19.50;99.90
45983;DHT22;31711;47.158;7.346;2022-07-10T07:14:32;19.60;99.90
45983;DHT22;31711;47.158;7.346;2022-07-10T07:16:58;19.70;99.90
45983;DHT22;31711;47.158;7.346;2022-07-10T07:19:27;19.80;99.90
45983;DHT22;31711;47.158;7.346;2022-07-10T07:22:22;19.70;99.90
45983;DHT22;31711;47.158;7.346;2022-07-10T07:25:08;19.80;99.90
45983;DHT22;31711;47.158;7.346;2022-07-10T07:27:36;20.10;99.90
45983;DHT22;31711;47.158;7.346;2022-07-10T07:30:06;20.10;99.90
45983;DHT22;31711;47.158;7.346;2022-07-10T07:32:33;20.00;99.90
45983;DHT22;31711;47.158;7.346;2022-07-10T07:34:59;20.00;99.90
45983;DHT22;31711;47.158;7.346;2022-07-10T07:37:43;20.00;99.90
45983;DHT22;31711;47.158;7.346;2022-07-10T07:40:15;20.20;99.90
45983;DHT22;31711;47.158;7.346;2022-07-10T07:42:42;20.40;99.90
45983;DHT22;31711;47.158;7.346;2022-07-10T07:45:09;20.50;99.90
45983;DHT22;31711;47.158;7.346;2022-07-10T07:47:46;20.60;99.90
45983;DHT22;31711;47.158;7.346;2022-07-10T07:50:16;20.80;99.90
45983;DHT22;31711;47.158;7.346;2022-07-10T07:52:43;20.90;99.90
45983;DHT22;31711;47.158;7.346;2022-07-10T07:55:10;21.00;99.90
45983;DHT22;31711;47.158;7.346;2022-07-10T07:57:37;21.10;99.90
45983;DHT22;31711;47.158;7.346;2022-07-10T08:00:04;21.10;99.90
45983;DHT22;31711;47.158;7.346;2022-07-10T08:02:31;21.00;99.90
45983;DHT22;31711;47.158;7.346;2022-07-10T08:04:57;21.20;99.90
45983;DHT22;31711;47.158;7.346;2022-07-10T08:07:23;21.20;99.90
45983;DHT22;31711;47.158;7.346;2022-07-10T08:09:58;21.30;99.90
45983;DHT22;31711;47.158;7.346;2022-07-10T08:12:23;21.40;99.90
45983;DHT22;31711;47.158;7.346;2022-07-10T08:14:49;21.50;99.90
45983;DHT22;31711;47.158;7.346;2022-07-10T08:17:15;21.80;99.90
45983;DHT22;31711;47.158;7.346;2022-07-10T08:19:44;21.90;99.90
45983;DHT22;31711;47.158;7.346;2022-07-10T08:22:10;21.90;99.90
45983;DHT22;31711;47.158;7.346;2022-07-10T08:24:37;22.10;99.90
45983;DHT22;31711;47.158;7.346;2022-07-10T08:27:03;22.10;99.90
45983;DHT22;31711;47.158;7.346;2022-07-10T08:29:32;22.00;99.90
45983;DHT22;31711;47.158;7.346;2022-07-10T08:31:58;22.20;99.90
45983;DHT22;31711;47.158;7.346;2022-07-10T08:34:24;22.20;99.90
45983;DHT22;31711;47.158;7.346;2022-07-10T08:36:50;22.30;99.90
45983;DHT22;31711;47.158;7.346;2022-07-10T08:39:16;22.40;99.90
45983;DHT22;31711;47.158;7.346;2022-07-10T08:41:47;22.50;99.90
45983;DHT22;31711;47.158;7.346;2022-07-10T08:44:16;22.60;99.90
45983;DHT22;31711;47.158;7.346;2022-07-10T08:46:45;22.70;99.90
45983;DHT22;31711;47.158;7.346;2022-07-10T08:49:12;22.90;99.90
45983;DHT22;31711;47.158;7.346;2022-07-10T08:54:56;22.80;99.90
45983;DHT22;31711;47.158;7.346;2022-07-10T08:57:26;22.80;99.90
45983;DHT22;31711;47.158;7.346;2022-07-10T08:59:58;22.90;99.90
45983;DHT22;31711;47.158;7.346;2022-07-10T09:02:36;23.10;99.90
45983;DHT22;31711;47.158;7.346;2022-07-10T09:05:16;23.20;99.90
45983;DHT22;31711;47.158;7.346;2022-07-10T09:07:55;23.10;99.90
45983;DHT22;31711;47.158;7.346;2022-07-10T09:10:37;23.10;99.90
45983;DHT22;31711;47.158;7.346;2022-07-10T09:13:06;23.50;99.90
45983;DHT22;31711;47.158;7.346;2022-07-10T09:15:55;23.70;99.90
45983;DHT22;31711;47.158;7.346;2022-07-10T09:18:23;23.70;99.90
45983;DHT22;31711;47.158;7.346;2022-07-10T09:20:50;23.50;99.90
45983;DHT22;31711;47.158;7.346;2022-07-10T09:23:18;23.60;99.90
45983;DHT22;31711;47.158;7.346;2022-07-10T09:25:48;24.00;99.90
45983;DHT22;31711;47.158;7.346;2022-07-10T09:28:17;24.00;99.90
45983;DHT22;31711;47.158;7.346;2022-07-10T09:30:46;24.30;99.90
45983;DHT22;31711;47.158;7.346;2022-07-10T09:33:19;24.40;99.90
45983;DHT22;31711;47.158;7.346;2022-07-10T09:41:24;24.70;99.90
45983;DHT22;31711;47.158;7.346;2022-07-10T09:43:51;24.80;99.90
45983;DHT22;31711;47.158;7.346;2022-07-10T09:46:22;25.10;99.90
45983;DHT22;31711;47.158;7.346;2022-07-10T09:49:07;24.80;99.60
45983;DHT22;31711;47.158;7.346;2022-07-10T09:51:39;24.60;99.50
45983;DHT22;31711;47.158;7.346;2022-07-10T09:54:08;24.50;99.90
45983;DHT22;31711;47.158;7.346;2022-07-10T09:56:48;24.70;99.20
45983;DHT22;31711;47.158;7.346;2022-07-10T09:59:20;24.70;99.70
45983;DHT22;31711;47.158;7.346;2022-07-10T10:01:51;25.10;99.80
45983;DHT22;31711;47.158;7.346;2022-07-10T10:04:21;25.20;98.60
45983;DHT22;31711;47.158;7.346;2022-07-10T10:06:54;25.30;99.10
45983;DHT22;31711;47.158;7.346;2022-07-10T10:09:41;25.50;99.60
45983;DHT22;31711;47.158;7.346;2022-07-10T10:12:17;25.30;98.50
45983;DHT22;31711;47.158;7.346;2022-07-10T10:14:47;25.00;99.20
45983;DHT22;31711;47.158;7.346;2022-07-10T10:17:16;25.40;98.80
45983;DHT22;31711;47.158;7.346;2022-07-10T10:19:44;25.40;98.70
45983;DHT22;31711;47.158;7.346;2022-07-10T10:22:29;25.20;98.80
45983;DHT22;31711;47.158;7.346;2022-07-10T10:24:57;24.90;99.10
45983;DHT22;31711;47.158;7.346;2022-07-10T10:27:24;24.90;98.90
45983;DHT22;31711;47.158;7.346;2022-07-10T10:29:51;24.90;99.40
45983;DHT22;31711;47.158;7.346;2022-07-10T10:32:17;24.70;98.90
45983;DHT22;31711;47.158;7.346;2022-07-10T10:34:47;24.40;99.40
45983;DHT22;31711;47.158;7.346;2022-07-10T10:39:54;23.30;99.80
45983;DHT22;31711;47.158;7.346;2022-07-10T10:42:47;23.20;99.70
45983;DHT22;31711;47.158;7.346;2022-07-10T10:48:15;23.80;99.60
45983;DHT22;31711;47.158;7.346;2022-07-10T10:50:49;23.90;99.20
45983;DHT22;31711;47.158;7.346;2022-07-10T10:53:21;24.10;99.40
45983;DHT22;31711;47.158;7.346;2022-07-10T10:58:39;24.10;98.60
45983;DHT22;31711;47.158;7.346;2022-07-10T11:01:27;24.60;99.30
45983;DHT22;31711;47.158;7.346;2022-07-10T11:06:41;25.20;99.00
45983;DHT22;31711;47.158;7.346;2022-07-10T11:09:32;25.50;98.70
45983;DHT22;31711;47.158;7.346;2022-07-10T11:12:09;25.30;96.80
45983;DHT22;31711;47.158;7.346;2022-07-10T11:14:37;25.30;97.70
45983;DHT22;31711;47.158;7.346;2022-07-10T11:17:05;25.70;97.20
45983;DHT22;31711;47.158;7.346;2022-07-10T11:19:32;25.90;98.50
45983;DHT22;31711;47.158;7.346;2022-07-10T11:27:34;26.10;96.80
45983;DHT22;31711;47.158;7.346;2022-07-10T11:30:02;25.80;94.80
45983;DHT22;31711;47.158;7.346;2022-07-10T11:32:29;25.90;95.90
45983;DHT22;31711;47.158;7.346;2022-07-10T11:34:55;26.30;95.20
45983;DHT22;31711;47.158;7.346;2022-07-10T11:37:21;26.30;95.90
45983;DHT22;31711;47.158;7.346;2022-07-10T11:39:49;26.00;95.80
45983;DHT22;31711;47.158;7.346;2022-07-10T11:42:15;26.20;96.20
45983;DHT22;31711;47.158;7.346;2022-07-10T11:44:41;26.80;96.90
45983;DHT22;31711;47.158;7.346;2022-07-10T11:47:07;27.00;95.40
45983;DHT22;31711;47.158;7.346;2022-07-10T11:49:33;26.40;94.20
45983;DHT22;31711;47.158;7.346;2022-07-10T11:52:04;26.40;95.10
45983;DHT22;31711;47.158;7.346;2022-07-10T11:54:30;27.10;96.70
45983;DHT22;31711;47.158;7.346;2022-07-10T11:56:56;27.40;93.90
45983;DHT22;31711;47.158;7.346;2022-07-10T11:59:29;27.20;94.10
45983;DHT22;31711;47.158;7.346;2022-07-10T12:01:56;27.20;94.10
45983;DHT22;31711;47.158;7.346;2022-07-10T12:04:23;27.60;95.20
45983;DHT22;31711;47.158;7.346;2022-07-10T12:06:51;27.70;94.20
45983;DHT22;31711;47.158;7.346;2022-07-10T12:09:20;27.00;93.50
45983;DHT22;31711;47.158;7.346;2022-07-10T12:12:05;25.60;93.90
45983;DHT22;31711;47.158;7.346;2022-07-10T12:14:33;25.30;94.40
45983;DHT22;31711;47.158;7.346;2022-07-10T12:16:59;25.20;94.50
45983;DHT22;31711;47.158;7.346;2022-07-10T12:19:30;25.40;94.90
45983;DHT22;31711;47.158;7.346;2022-07-10T12:21:59;25.60;94.50
45983;DHT22;31711;47.158;7.346;2022-07-10T12:24:26;26.40;95.60
45983;DHT22;31711;47.158;7.346;2022-07-10T12:26:53;26.90;94.30
45983;DHT22;31711;47.158;7.346;2022-07-10T12:29:23;27.10;93.80
45983;DHT22;31711;47.158;7.346;2022-07-10T12:31:52;27.40;93.90
45983;DHT22;31711;47.158;7.346;2022-07-10T12:34:18;27.20;92.80
45983;DHT22;31711;47.158;7.346;2022-07-10T12:39:15;26.20;93.50
45983;DHT22;31711;47.158;7.346;2022-07-10T12:44:43;26.10;93.40
45983;DHT22;31711;47.158;7.346;2022-07-10T12:47:17;26.10;92.60
45983;DHT22;31711;47.158;7.346;2022-07-10T12:49:57;26.50;93.00
45983;DHT22;31711;47.158;7.346;2022-07-10T12:52:34;27.00;92.50
45983;DHT22;31711;47.158;7.346;2022-07-10T12:55:16;27.20;92.50
45983;DHT22;31711;47.158;7.346;2022-07-10T12:57:54;27.50;92.30
45983;DHT22;31711;47.158;7.346;2022-07-10T13:00:29;26.90;92.20
45983;DHT22;31711;47.158;7.346;2022-07-10T13:05:36;25.60;90.10
45983;DHT22;31711;47.158;7.346;2022-07-10T13:10:39;25.90;88.10
45983;DHT22;31711;47.158;7.346;2022-07-10T13:13:05;25.80;89.20
45983;DHT22;31711;47.158;7.346;2022-07-10T13:15:32;25.40;88.30
45983;DHT22;31711;47.158;7.346;2022-07-10T13:18:12;25.30;90.00
45983;DHT22;31711;47.158;7.346;2022-07-10T13:20:38;25.00;87.50
45983;DHT22;31711;47.158;7.346;2022-07-10T13:23:04;25.30;90.40
45983;DHT22;31711;47.158;7.346;2022-07-10T13:25:30;25.40;88.10
45983;DHT22;31711;47.158;7.346;2022-07-10T13:27:56;25.00;86.60
45983;DHT22;31711;47.158;7.346;2022-07-10T13:30:22;25.10;86.50
45983;DHT22;31711;47.158;7.346;2022-07-10T13:32:48;25.50;89.80
45983;DHT22;31711;47.158;7.346;2022-07-10T13:35:14;25.50;89.60
45983;DHT22;31711;47.158;7.346;2022-07-10T13:37:40;26.00;90.40
45983;DHT22;31711;47.158;7.346;2022-07-10T13:40:07;25.40;88.20
45983;DHT22;31711;47.158;7.346;2022-07-10T13:42:34;25.60;86.10
45983;DHT22;31711;47.158;7.346;2022-07-10T13:45:00;25.60;87.20
45983;DHT22;31711;47.158;7.346;2022-07-10T13:47:26;25.60;87.20
45983;DHT22;31711;47.158;7.346;2022-07-10T13:49:52;25.60;87.70
45983;DHT22;31711;47.158;7.346;2022-07-10T13:52:18;25.40;86.00
45983;DHT22;31711;47.158;7.346;2022-07-10T13:54:43;25.40;85.50
45983;DHT22;31711;47.158;7.346;2022-07-10T13:57:09;25.60;86.20
45983;DHT22;31711;47.158;7.346;2022-07-10T13:59:35;25.50;83.20
45983;DHT22;31711;47.158;7.346;2022-07-10T14:02:01;25.60;84.20
45983;DHT22;31711;47.158;7.346;2022-07-10T14:04:27;25.70;84.30
45983;DHT22;31711;47.158;7.346;2022-07-10T14:06:53;25.40;83.70
45983;DHT22;31711;47.158;7.346;2022-07-10T14:09:20;25.60;84.90
45983;DHT22;31711;47.158;7.346;2022-07-10T14:11:50;25.70;83.30
45983;DHT22;31711;47.158;7.346;2022-07-10T14:14:16;26.00;88.60
45983;DHT22;31711;47.158;7.346;2022-07-10T14:16:41;26.00;87.40
45983;DHT22;31711;47.158;7.346;2022-07-10T14:19:09;25.70;88.10
45983;DHT22;31711;47.158;7.346;2022-07-10T14:21:35;25.50;88.80
45983;DHT22;31711;47.158;7.346;2022-07-10T14:24:02;25.30;89.60
45983;DHT22;31711;47.158;7.346;2022-07-10T14:26:29;25.40;89.50
45983;DHT22;31711;47.158;7.346;2022-07-10T14:28:55;25.30;88.10
45983;DHT22;31711;47.158;7.346;2022-07-10T14:31:21;25.40;87.40
45983;DHT22;31711;47.158;7.346;2022-07-10T14:33:47;25.60;87.60
45983;DHT22;31711;47.158;7.346;2022-07-10T14:36:13;25.30;85.70
45983;DHT22;31711;47.158;7.346;2022-07-10T14:38:38;25.30;85.70
45983;DHT22;31711;47.158;7.346;2022-07-10T14:41:04;25.50;87.30
45983;DHT22;31711;47.158;7.346;2022-07-10T14:43:31;25.60;86.90
45983;DHT22;31711;47.158;7.346;2022-07-10T14:46:00;25.60;84.40
45983;DHT22;31711;47.158;7.346;2022-07-10T14:48:30;25.70;85.10
45983;DHT22;31711;47.158;7.346;2022-07-10T14:50:56;25.60;85.80
45983;DHT22;31711;47.158;7.346;2022-07-10T14:53:25;25.70;85.20
45983;DHT22;31711;47.158;7.346;2022-07-10T14:55:52;25.80;83.90
45983;DHT22;31711;47.158;7.346;2022-07-10T14:58:18;25.90;82.10
45983;DHT22;31711;47.158;7.346;2022-07-10T15:00:44;25.50;79.90
45983;DHT22;31711;47.158;7.346;2022-07-10T15:03:10;25.50;80.50
45983;DHT22;31711;47.158;7.346;2022-07-10T15:05:36;25.50;80.10
45983;DHT22;31711;47.158;7.346;2022-07-10T15:08:02;25.40;81.00
45983;DHT22;31711;47.158;7.346;2022-07-10T15:10:30;25.40;80.20
45983;DHT22;31711;47.158;7.346;2022-07-10T15:12:58;25.30;80.90
45983;DHT22;31711;47.158;7.346;2022-07-10T15:15:25;25.20;81.90
45983;DHT22;31711;47.158;7.346;2022-07-10T15:17:51;25.40;80.30
45983;DHT22;31711;47.158;7.346;2022-07-10T15:20:17;25.50;78.90
45983;DHT22;31711;47.158;7.346;2022-07-10T15:22:45;25.50;77.80
45983;DHT22;31711;47.158;7.346;2022-07-10T15:25:11;25.40;77.00
45983;DHT22;31711;47.158;7.346;2022-07-10T15:27:36;25.30;77.20
45983;DHT22;31711;47.158;7.346;2022-07-10T15:30:03;25.30;77.60
45983;DHT22;31711;47.158;7.346;2022-07-10T15:32:29;25.30;77.80
45983;DHT22;31711;47.158;7.346;2022-07-10T15:34:55;25.30;76.60
45983;DHT22;31711;47.158;7.346;2022-07-10T15:37:21;25.10;75.10
45983;DHT22;31711;47.158;7.346;2022-07-10T15:39:49;25.20;78.30
45983;DHT22;31711;47.158;7.346;2022-07-10T15:42:15;25.30;75.20
45983;DHT22;31711;47.158;7.346;2022-07-10T15:44:40;25.20;75.20
45983;DHT22;31711;47.158;7.346;2022-07-10T15:47:07;25.30;76.40
45983;DHT22;31711;47.158;7.346;2022-07-10T15:49:33;25.30;77.60
45983;DHT22;31711;47.158;7.346;2022-07-10T15:51:59;25.50;76.30
45983;DHT22;31711;47.158;7.346;2022-07-10T15:54:28;25.40;76.10
45983;DHT22;31711;47.158;7.346;2022-07-10T15:56:54;25.50;79.10
45983;DHT22;31711;47.158;7.346;2022-07-10T15:59:20;25.50;76.00
45983;DHT22;31711;47.158;7.346;2022-07-10T16:01:51;25.50;77.10
45983;DHT22;31711;47.158;7.346;2022-07-10T16:04:17;25.20;76.60
45983;DHT22;31711;47.158;7.346;2022-07-10T16:06:43;25.20;78.50
45983;DHT22;31711;47.158;7.346;2022-07-10T16:09:09;25.10;77.00
45983;DHT22;31711;47.158;7.346;2022-07-10T16:11:35;25.00;77.90